Red Cloud, Nebraska
Current Conditions -  °F | °C
As of 1:53 PM on Friday 19 Dec 2014 (Local Time) from KHSI Reporting Station
Overcast Overcast  
Wind Chill: 28°   Ceiling: 1000
Heat Index: 35°   Visibility: 8mi
Dew Point: 29°   Wind: 9mph
Humidity: 78%   Direction: 180°S
Pressure: 30.07"   Gusts: NA
Location:  40.09°N, 98.52°W
Report Text: KHSI 191953Z AUTO 18008KT 8SM OVC010 02/M02 A3007 RMK AO2 SLP202 T00171017
Loading
Personal Weather Stations






























Interactive Weather Map New forecast layout! Learn more

10-Day Weather Forecast

Advertisements
Track Severe Weather on mobile